createdAt,value
2018-11-22T12:18:14.789Z,65.49
2018-11-22T12:20:44.737Z,65.53
2018-11-22T12:23:14.472Z,65.30
2018-11-22T12:25:44.352Z,65.17
2018-11-22T12:28:14.299Z,64.77
2018-11-22T12:30:44.127Z,64.74
2018-11-22T12:33:19.885Z,65.37
2018-11-22T12:35:55.562Z,64.35
2018-11-22T12:38:30.445Z,65.12
2018-11-22T12:41:00.186Z,64.38
2018-11-22T12:43:30.043Z,64.03
2018-11-22T12:45:59.884Z,64.87
2018-11-22T12:48:29.726Z,64.14
2018-11-22T12:50:59.509Z,64.83
2018-11-22T12:53:29.602Z,64.86
2018-11-22T12:55:59.902Z,64.56
2018-11-22T12:58:29.716Z,64.57
2018-11-22T13:01:00.135Z,65.33
2018-11-22T13:03:30.040Z,64.32
2018-11-22T13:06:00.000Z,64.67
2018-11-22T13:08:30.074Z,64.52
2018-11-22T13:10:59.804Z,64.95
2018-11-22T13:13:29.980Z,64.54
2018-11-22T13:15:59.815Z,64.72
2018-11-22T13:18:29.612Z,64.55
2018-11-22T13:20:59.494Z,64.63
2018-11-22T13:23:29.237Z,64.94
2018-11-22T13:25:59.352Z,64.95
2018-11-22T13:28:29.960Z,65.19
2018-11-22T13:30:59.817Z,64.92
2018-11-22T13:33:29.707Z,64.90
2018-11-22T13:36:00.143Z,65.42
2018-11-22T13:38:30.556Z,65.32
2018-11-22T13:41:00.490Z,65.94
2018-11-22T13:43:30.273Z,66.41
2018-11-22T13:46:00.116Z,65.86
2018-11-22T13:48:29.980Z,65.45
2018-11-22T13:50:59.935Z,65.42
2018-11-22T13:53:29.737Z,65.25
2018-11-22T13:55:59.840Z,65.93
2018-11-22T13:58:29.717Z,66.35
2018-11-22T14:00:59.465Z,66.22
2018-11-22T14:03:29.267Z,66.08
2018-11-22T14:05:59.247Z,65.68
2018-11-22T14:08:29.505Z,66.09
2018-11-22T14:10:59.322Z,65.95
2018-11-22T14:13:29.223Z,66.38
2018-11-22T14:15:59.342Z,66.53
2018-11-22T14:18:29.172Z,66.09
2018-11-22T14:20:58.928Z,66.19
2018-11-22T14:23:28.820Z,66.51
2018-11-22T14:25:58.799Z,66.59
2018-11-22T14:28:28.760Z,66.63
2018-11-22T14:30:58.694Z,66.55
2018-11-22T14:33:28.505Z,66.87
2018-11-22T14:35:58.589Z,66.95
2018-11-22T14:38:28.321Z,66.69
2018-11-22T14:40:58.424Z,67.02
2018-11-22T14:43:28.155Z,66.87
2018-11-22T14:45:58.217Z,66.77
2018-11-22T14:48:27.972Z,66.88
2018-11-22T14:51:09.596Z,67.24
2018-11-22T14:53:39.385Z,66.63
2018-11-22T14:56:09.712Z,66.69
2018-11-22T14:58:39.447Z,67.30
2018-11-22T15:01:09.443Z,67.17
2018-11-22T15:03:39.212Z,67.45
2018-11-22T15:06:09.230Z,66.89
2018-11-22T15:08:39.145Z,67.57
2018-11-22T15:11:08.995Z,67.38
2018-11-22T15:13:38.904Z,67.67
2018-11-22T15:16:08.915Z,67.59
2018-11-22T15:18:38.710Z,67.45
2018-11-22T15:21:08.646Z,67.47
2018-11-22T15:23:38.553Z,68.37
2018-11-22T15:26:09.992Z,68.23
2018-11-22T15:28:40.018Z,68.51
2018-11-22T15:31:09.792Z,68.75
2018-11-22T15:33:39.650Z,68.44
2018-11-22T15:36:09.505Z,68.73
2018-11-22T15:38:39.326Z,68.86
2018-11-22T15:41:09.052Z,69.19
2018-11-22T15:43:39.392Z,69.45
2018-11-22T15:46:09.218Z,68.60
2018-11-22T15:48:38.917Z,69.08
2018-11-22T15:51:08.660Z,69.60
2018-11-22T15:53:38.490Z,69.95
2018-11-22T15:56:08.465Z,70.00
2018-11-22T15:58:38.312Z,70.59
2018-11-22T16:01:08.160Z,70.55
2018-11-22T16:03:38.248Z,70.85
2018-11-22T16:06:08.328Z,70.97
2018-11-22T16:08:38.068Z,70.54
2018-11-22T16:11:10.888Z,71.08
2018-11-22T16:13:38.261Z,70.64
2018-11-22T16:16:08.455Z,71.04
2018-11-22T16:18:38.336Z,71.75
2018-11-22T16:21:08.189Z,71.44
2018-11-22T16:23:38.049Z,71.73
2018-11-22T16:26:07.951Z,71.57
2018-11-22T16:28:37.868Z,71.69
2018-11-22T16:31:08.148Z,71.82
2018-11-22T16:33:38.643Z,71.87
2018-11-22T16:36:08.467Z,71.78
2018-11-22T16:38:38.359Z,72.43
2018-11-22T16:41:08.237Z,72.36
2018-11-22T16:43:38.256Z,73.26
2018-11-22T16:46:08.256Z,72.46
2018-11-22T16:48:38.251Z,73.04
2018-11-22T16:51:08.256Z,73.33
2018-11-22T16:53:38.139Z,73.43
2018-11-22T16:56:08.127Z,73.58
2018-11-22T16:58:38.138Z,73.31
2018-11-22T17:01:08.222Z,73.73
2018-11-22T17:03:38.005Z,73.90
2018-11-22T17:06:08.759Z,74.21
2018-11-22T17:08:38.605Z,73.82
2018-11-22T17:11:08.516Z,74.63
2018-11-22T17:13:38.365Z,73.88
2018-11-22T17:16:08.283Z,74.85
2018-11-22T17:18:38.098Z,74.82
2018-11-22T17:21:07.981Z,75.21
2018-11-22T17:23:37.724Z,75.29
2018-11-22T17:26:07.683Z,75.19
2018-11-22T17:28:37.649Z,74.96
2018-11-22T17:31:07.564Z,75.75
2018-11-22T17:33:37.322Z,75.54
2018-11-22T17:36:07.839Z,75.93
2018-11-22T17:38:37.693Z,75.62
2018-11-22T17:41:08.207Z,75.96
2018-11-22T17:43:38.074Z,76.19
2018-11-22T17:46:08.512Z,75.62
2018-11-22T17:48:38.601Z,76.23
2018-11-22T17:51:08.367Z,76.02
2018-11-22T17:53:38.337Z,76.46
2018-11-22T17:56:08.209Z,76.13
2018-11-22T17:58:38.072Z,76.69
2018-11-22T18:01:14.404Z,76.92
2018-11-22T18:03:37.968Z,76.58
2018-11-22T18:06:08.027Z,76.68
2018-11-22T18:08:37.795Z,76.80
2018-11-22T18:11:07.568Z,76.73
2018-11-22T18:13:37.448Z,76.54
2018-11-22T18:16:07.419Z,77.16
2018-11-22T18:18:37.315Z,77.02
2018-11-22T18:21:08.203Z,76.85
2018-11-22T18:23:38.232Z,77.12
2018-11-22T18:26:08.209Z,77.54
2018-11-22T18:28:38.664Z,77.67
2018-11-22T18:31:08.679Z,77.54
2018-11-22T18:33:38.562Z,77.21
2018-11-22T18:36:08.612Z,77.33
2018-11-22T18:38:38.511Z,77.86
2018-11-22T18:41:08.416Z,78.16
2018-11-22T18:43:38.592Z,78.03
2018-11-22T18:46:08.551Z,77.81
2018-11-22T18:48:39.411Z,77.83
2018-11-22T18:51:09.249Z,78.15
2018-11-22T18:53:39.270Z,78.47
2018-11-22T18:56:09.170Z,78.17
2018-11-22T18:58:39.179Z,78.25
2018-11-22T19:01:09.031Z,78.44
2018-11-22T19:03:38.910Z,78.18
2018-11-22T19:06:08.967Z,78.16
2018-11-22T19:08:39.217Z,78.03
2018-11-22T19:11:09.070Z,78.35
2018-11-22T19:13:38.998Z,78.22
2018-11-22T19:16:08.918Z,78.39
2018-11-22T19:18:38.684Z,78.67
2018-11-22T19:21:08.673Z,78.08
2018-11-22T19:23:38.765Z,78.26
2018-11-22T19:26:08.641Z,78.11
2018-11-22T19:28:38.443Z,77.75
2018-11-22T19:31:08.671Z,78.30
2018-11-22T19:33:38.438Z,78.06
2018-11-22T19:36:08.700Z,78.30
2018-11-22T19:38:39.175Z,78.09
2018-11-22T19:41:08.946Z,77.99
2018-11-22T19:43:38.828Z,77.78
2018-11-22T19:46:08.708Z,78.29
2018-11-22T19:48:38.590Z,78.42
2018-11-22T19:51:08.645Z,78.19
2018-11-22T19:53:38.482Z,78.28
2018-11-22T19:56:09.783Z,77.96
2018-11-22T19:58:40.172Z,77.95
2018-11-22T20:01:09.975Z,78.15
2018-11-22T20:03:40.447Z,77.85
2018-11-22T20:06:10.403Z,78.24
2018-11-22T20:08:40.453Z,78.12
2018-11-22T20:11:10.459Z,78.25
2018-11-22T20:13:40.351Z,77.69
2018-11-22T20:16:10.246Z,77.94
2018-11-22T20:18:40.081Z,77.57
2018-11-22T20:21:11.035Z,77.97
2018-11-22T20:23:41.085Z,78.02
2018-11-22T20:26:11.099Z,77.96
2018-11-22T20:28:40.942Z,78.02
2018-11-22T20:31:10.973Z,77.70
2018-11-22T20:33:40.929Z,77.83
2018-11-22T20:36:11.283Z,77.47
2018-11-22T20:38:41.351Z,77.94
2018-11-22T20:41:11.456Z,77.25
2018-11-22T20:43:41.374Z,77.95
2018-11-22T20:46:11.582Z,77.37
2018-11-22T20:48:41.443Z,77.60
2018-11-22T20:51:11.193Z,77.79
2018-11-22T20:53:41.003Z,78.37
2018-11-22T20:56:11.351Z,77.77
2018-11-22T20:58:41.213Z,78.23
2018-11-22T21:01:11.067Z,77.84
2018-11-22T21:03:40.920Z,78.03
2018-11-22T21:06:10.884Z,77.64
2018-11-22T21:08:48.299Z,78.28
2018-11-22T21:11:10.742Z,78.27
2018-11-22T21:13:40.675Z,78.33
2018-11-22T21:16:11.192Z,78.35
2018-11-22T21:18:41.289Z,78.35
2018-11-22T21:21:11.277Z,78.54
2018-11-22T21:23:41.272Z,78.26
2018-11-22T21:26:14.411Z,78.31
2018-11-22T21:28:40.998Z,78.47
2018-11-22T21:31:10.871Z,78.67
2018-11-22T21:33:41.021Z,78.39
2018-11-22T21:36:10.919Z,78.61
2018-11-22T21:38:41.011Z,78.94
2018-11-22T21:41:10.883Z,78.65
2018-11-22T21:43:40.854Z,78.91
2018-11-22T21:46:10.790Z,78.57
2018-11-22T21:48:40.562Z,78.38
2018-11-22T21:51:10.632Z,78.40
2018-11-22T21:53:40.629Z,78.91
2018-11-22T21:56:10.601Z,78.89
2018-11-22T21:58:40.361Z,79.13
2018-11-22T22:01:10.841Z,78.94
2018-11-22T22:03:40.763Z,78.93
2018-11-22T22:06:10.518Z,79.10
2018-11-22T22:08:40.407Z,79.08
2018-11-22T22:11:10.192Z,78.65
2018-11-22T22:13:40.010Z,78.80
2018-11-22T22:16:09.911Z,78.77
2018-11-22T22:18:39.828Z,78.67
2018-11-22T22:21:09.876Z,78.58
2018-11-22T22:23:39.722Z,78.80
2018-11-22T22:26:09.664Z,78.57
2018-11-22T22:28:39.408Z,78.81
2018-11-22T22:31:09.296Z,78.83
2018-11-22T22:33:39.500Z,79.02
2018-11-22T22:36:09.301Z,78.98
2018-11-22T22:38:39.188Z,79.03
2018-11-22T22:41:09.179Z,78.83
2018-11-22T22:43:39.224Z,78.73
2018-11-22T22:46:09.331Z,78.83
2018-11-22T22:48:39.123Z,79.09
2018-11-22T22:51:08.983Z,78.82
2018-11-22T22:53:39.014Z,78.93
2018-11-22T22:56:09.513Z,78.74
2018-11-22T22:58:39.412Z,79.32
2018-11-22T23:01:09.364Z,78.87
2018-11-22T23:03:39.187Z,79.09
2018-11-22T23:06:09.114Z,79.09
2018-11-22T23:08:39.051Z,79.30
2018-11-22T23:11:08.763Z,79.10
2018-11-22T23:13:38.708Z,78.63
2018-11-22T23:16:08.615Z,78.92
2018-11-22T23:18:38.499Z,78.37
2018-11-22T23:21:09.012Z,78.25
2018-11-22T23:23:38.778Z,78.38
2018-11-22T23:26:08.668Z,78.54
2018-11-22T23:28:38.375Z,78.61
2018-11-22T23:31:08.155Z,78.75
2018-11-22T23:33:37.899Z,78.55
2018-11-22T23:36:07.642Z,78.67
2018-11-22T23:38:37.361Z,78.35
2018-11-22T23:41:07.332Z,78.28
2018-11-22T23:43:37.058Z,78.86
2018-11-22T23:46:07.327Z,78.77
2018-11-22T23:48:37.132Z,78.37
2018-11-22T23:51:07.038Z,78.91
2018-11-22T23:53:36.750Z,78.80
2018-11-22T23:56:07.055Z,78.70
2018-11-22T23:58:36.812Z,78.79
